createdAt,value
2018-10-02T00:01:44.739Z,9.20
2018-10-02T00:04:14.119Z,9.30
2018-10-02T00:06:43.248Z,9.30
2018-10-02T00:09:13.207Z,9.30
2018-10-02T00:11:47.583Z,9.30
2018-10-02T00:14:23.319Z,9.40
2018-10-02T00:16:52.497Z,9.40
2018-10-02T00:19:21.629Z,9.40
2018-10-02T00:21:50.801Z,9.40
2018-10-02T00:24:19.980Z,9.40
2018-10-02T00:26:49.045Z,9.40
2018-10-02T00:29:18.136Z,9.50
2018-10-02T00:31:47.205Z,9.50
2018-10-02T00:34:16.170Z,9.50
2018-10-02T00:36:45.301Z,9.50
2018-10-02T00:39:14.336Z,9.50
2018-10-02T00:41:43.320Z,9.60
2018-10-02T00:44:12.333Z,9.60
2018-10-02T00:46:41.312Z,9.60
2018-10-02T00:49:10.332Z,9.60
2018-10-02T00:51:39.337Z,9.60
2018-10-02T00:54:08.397Z,9.60
2018-10-02T00:56:37.416Z,9.60
2018-10-02T00:59:06.434Z,9.60
2018-10-02T01:01:35.435Z,9.70
2018-10-02T01:04:04.405Z,9.70
2018-10-02T01:06:33.498Z,9.70
2018-10-02T01:09:02.636Z,9.70
2018-10-02T01:11:31.664Z,9.70
2018-10-02T01:14:00.970Z,9.80
2018-10-02T01:16:30.076Z,9.80
2018-10-02T01:18:59.096Z,9.80
2018-10-02T01:21:28.143Z,9.80
2018-10-02T01:23:57.104Z,9.80
2018-10-02T01:26:26.164Z,9.80
2018-10-02T01:28:55.254Z,9.80
2018-10-02T01:31:24.337Z,9.80
2018-10-02T01:33:53.433Z,9.90
2018-10-02T01:36:22.548Z,9.90
2018-10-02T01:38:51.638Z,9.90
2018-10-02T01:41:20.702Z,9.90
2018-10-02T01:43:49.669Z,9.90
2018-10-02T01:46:18.688Z,9.90
2018-10-02T01:48:48.165Z,9.90
2018-10-02T01:51:17.174Z,9.90
2018-10-02T01:53:46.215Z,9.90
2018-10-02T01:56:15.292Z,9.90
2018-10-02T01:58:44.418Z,10.00
2018-10-02T02:01:13.445Z,10.00
2018-10-02T02:03:42.457Z,9.90
2018-10-02T02:06:11.558Z,10.00
2018-10-02T02:08:40.625Z,10.00
2018-10-02T02:11:09.638Z,9.90
2018-10-02T02:13:38.752Z,9.90
2018-10-02T02:16:07.744Z,9.90
2018-10-02T02:18:36.865Z,9.90
2018-10-02T02:21:05.905Z,9.90
2018-10-02T02:23:34.880Z,9.90
2018-10-02T02:26:03.931Z,9.90
2018-10-02T02:28:33.023Z,9.90
2018-10-02T02:31:02.124Z,9.90
2018-10-02T02:33:31.183Z,9.90
2018-10-02T02:36:00.187Z,9.90
2018-10-02T02:38:29.322Z,9.90
2018-10-02T02:40:58.342Z,9.90
2018-10-02T02:43:27.385Z,10.00
2018-10-02T02:45:57.011Z,9.90
2018-10-02T02:48:31.453Z,10.00
2018-10-02T02:51:05.773Z,10.00
2018-10-02T02:53:34.783Z,10.00
2018-10-02T02:56:03.937Z,10.00
2018-10-02T02:58:33.017Z,10.00
2018-10-02T03:01:02.077Z,10.00
2018-10-02T03:03:32.111Z,10.00
2018-10-02T03:06:01.245Z,10.00
2018-10-02T03:08:30.325Z,10.00
2018-10-02T03:10:59.465Z,10.00
2018-10-02T03:13:28.659Z,10.10
2018-10-02T03:15:57.681Z,10.10
2018-10-02T03:18:26.853Z,10.10
2018-10-02T03:20:55.875Z,10.10
2018-10-02T03:23:24.894Z,10.10
2018-10-02T03:25:53.909Z,10.10
2018-10-02T03:28:22.960Z,10.10
2018-10-02T03:30:52.014Z,10.10
2018-10-02T03:33:21.018Z,10.10
2018-10-02T03:35:50.003Z,10.10
2018-10-02T03:38:19.061Z,10.20
2018-10-02T03:40:48.193Z,10.20
2018-10-02T03:43:17.230Z,10.20
2018-10-02T03:45:46.335Z,10.20
2018-10-02T03:48:15.440Z,10.20
2018-10-02T03:50:44.462Z,10.20
2018-10-02T03:53:13.517Z,10.20
2018-10-02T03:55:42.638Z,10.20
2018-10-02T03:58:11.711Z,10.20
2018-10-02T04:00:40.827Z,10.30
2018-10-02T04:03:09.822Z,10.30
2018-10-02T04:05:46.012Z,10.30
2018-10-02T04:08:15.021Z,10.30
2018-10-02T04:10:44.046Z,10.30
2018-10-02T04:13:13.092Z,10.40
2018-10-02T04:15:42.153Z,10.40
2018-10-02T04:18:11.186Z,10.40
2018-10-02T04:20:40.354Z,10.40
2018-10-02T04:23:09.270Z,10.40
2018-10-02T04:25:38.284Z,10.50
2018-10-02T04:28:07.306Z,10.50
2018-10-02T04:30:36.426Z,10.50
2018-10-02T04:33:05.424Z,10.50
2018-10-02T04:35:34.492Z,10.50
2018-10-02T04:38:03.562Z,10.50
2018-10-02T04:40:32.738Z,10.50
2018-10-02T04:43:01.816Z,10.50
2018-10-02T04:45:30.846Z,10.60
2018-10-02T04:47:59.853Z,10.60
2018-10-02T04:50:28.934Z,10.60
2018-10-02T04:52:57.910Z,10.60
2018-10-02T04:55:26.994Z,10.70
2018-10-02T04:57:56.086Z,10.70
2018-10-02T05:00:25.235Z,10.70
2018-10-02T05:02:54.214Z,10.70
2018-10-02T05:05:23.299Z,10.70
2018-10-02T05:07:52.418Z,10.70
2018-10-02T05:10:21.564Z,10.70
2018-10-02T05:12:50.558Z,10.70
2018-10-02T05:15:19.752Z,10.80
2018-10-02T05:17:48.782Z,10.80
2018-10-02T05:20:18.524Z,10.80
2018-10-02T05:22:47.575Z,10.80
2018-10-02T05:25:16.570Z,10.80
2018-10-02T05:27:45.624Z,10.80
2018-10-02T05:30:14.608Z,10.80
2018-10-02T05:32:43.700Z,10.90
2018-10-02T05:35:12.921Z,10.90
2018-10-02T05:37:41.842Z,10.90
2018-10-02T05:40:10.962Z,10.90
2018-10-02T05:42:40.109Z,10.90
2018-10-02T05:45:09.522Z,10.90
2018-10-02T05:47:38.598Z,10.90
2018-10-02T05:50:07.638Z,10.90
2018-10-02T05:52:36.745Z,10.90
2018-10-02T05:55:05.868Z,10.90
2018-10-02T05:57:35.634Z,11.00
2018-10-02T06:00:04.718Z,11.00
2018-10-02T06:02:33.838Z,11.00
2018-10-02T06:05:02.906Z,11.00
2018-10-02T06:07:31.965Z,11.10
2018-10-02T06:10:02.307Z,11.10
2018-10-02T06:12:31.550Z,11.10
2018-10-02T06:15:00.644Z,11.10
2018-10-02T06:17:29.714Z,11.10
2018-10-02T06:19:58.853Z,11.20
2018-10-02T06:22:28.104Z,11.20
2018-10-02T06:24:57.161Z,11.20
2018-10-02T06:27:26.231Z,11.20
2018-10-02T06:29:55.352Z,11.20
2018-10-02T06:32:24.394Z,11.30
2018-10-02T06:34:53.409Z,11.30
2018-10-02T06:37:26.561Z,11.40
2018-10-02T06:39:55.545Z,11.40
2018-10-02T06:42:24.558Z,11.50
2018-10-02T06:44:53.570Z,11.50
2018-10-02T06:47:22.671Z,11.60
2018-10-02T06:49:51.759Z,11.60
2018-10-02T06:52:20.957Z,11.60
2018-10-02T06:54:49.862Z,11.60
2018-10-02T06:57:18.983Z,11.70
2018-10-02T06:59:48.030Z,11.70
2018-10-02T07:02:17.781Z,11.70
2018-10-02T07:04:46.861Z,11.80
2018-10-02T07:07:15.974Z,11.80
2018-10-02T07:09:45.007Z,11.80
2018-10-02T07:12:14.037Z,11.90
2018-10-02T07:14:43.242Z,11.90
2018-10-02T07:17:12.227Z,11.90
2018-10-02T07:19:41.429Z,12.00
2018-10-02T07:22:10.553Z,12.00
2018-10-02T07:24:39.659Z,12.10
2018-10-02T07:27:08.785Z,12.10
2018-10-02T07:29:37.811Z,12.20
2018-10-02T07:32:06.979Z,12.20
2018-10-02T07:34:35.992Z,12.20
2018-10-02T07:37:05.239Z,12.20
2018-10-02T07:39:34.285Z,12.20
2018-10-02T07:42:03.328Z,12.20
2018-10-02T07:44:44.017Z,12.20
2018-10-02T07:47:13.053Z,12.20
2018-10-02T07:49:42.213Z,12.20
2018-10-02T07:52:11.543Z,12.30
2018-10-02T07:54:40.543Z,12.30
2018-10-02T07:57:09.859Z,12.30
2018-10-02T07:59:38.896Z,12.30
2018-10-02T08:02:08.347Z,12.30
2018-10-02T08:04:37.396Z,12.30
2018-10-02T08:07:06.541Z,12.30
2018-10-02T08:09:36.647Z,12.30
2018-10-02T08:12:05.947Z,12.30
2018-10-02T08:14:34.925Z,12.40
2018-10-02T08:17:03.997Z,12.40
2018-10-02T08:19:33.047Z,12.40
2018-10-02T08:22:02.097Z,12.40
2018-10-02T08:24:31.212Z,12.50
2018-10-02T08:27:00.350Z,12.50
2018-10-02T08:29:29.828Z,12.50
2018-10-02T08:31:59.029Z,12.50
2018-10-02T08:34:28.033Z,12.50
2018-10-02T08:36:57.093Z,12.60
2018-10-02T08:39:26.549Z,12.60
2018-10-02T08:41:55.658Z,12.60
2018-10-02T08:44:24.727Z,12.70
2018-10-02T08:46:53.751Z,12.70
2018-10-02T08:49:22.880Z,12.80
2018-10-02T08:51:52.076Z,12.80
2018-10-02T08:54:21.070Z,12.80
2018-10-02T08:56:50.155Z,12.80
2018-10-02T08:59:19.155Z,12.80
2018-10-02T09:01:48.260Z,12.80
2018-10-02T09:04:17.346Z,12.80
2018-10-02T09:06:46.404Z,12.90
2018-10-02T09:09:15.435Z,12.80
2018-10-02T09:11:44.550Z,12.90
2018-10-02T09:14:13.614Z,13.00
2018-10-02T09:16:42.784Z,13.00
2018-10-02T09:19:11.828Z,13.00
2018-10-02T09:21:40.871Z,13.00
2018-10-02T09:24:09.906Z,13.10
2018-10-02T09:26:38.992Z,13.10
2018-10-02T09:29:08.388Z,13.10
2018-10-02T09:31:42.685Z,13.10
2018-10-02T09:34:17.141Z,13.10
2018-10-02T09:36:51.631Z,13.10
2018-10-02T09:39:26.062Z,13.20
2018-10-02T09:42:00.540Z,13.20
2018-10-02T09:44:29.558Z,13.30
2018-10-02T09:46:58.510Z,13.40
2018-10-02T09:49:27.522Z,13.50
2018-10-02T09:51:56.681Z,13.60
2018-10-02T09:54:25.742Z,13.60
2018-10-02T09:56:54.818Z,13.70
2018-10-02T09:59:23.862Z,13.80
2018-10-02T10:01:58.390Z,13.80
2018-10-02T10:04:27.524Z,13.80
2018-10-02T10:06:56.405Z,13.80
2018-10-02T10:09:25.453Z,13.80
2018-10-02T10:11:54.641Z,13.80
2018-10-02T10:14:23.809Z,13.80
2018-10-02T10:16:52.880Z,13.80
2018-10-02T10:19:21.794Z,13.80
2018-10-02T10:21:50.841Z,13.90
2018-10-02T10:24:19.869Z,13.90
2018-10-02T10:26:48.909Z,13.90
2018-10-02T10:29:17.881Z,13.90
2018-10-02T10:31:46.901Z,14.00
2018-10-02T10:34:16.068Z,14.00
2018-10-02T10:36:45.031Z,14.00
2018-10-02T10:39:14.023Z,13.90
2018-10-02T10:41:44.005Z,14.00
2018-10-02T10:44:13.101Z,14.00
2018-10-02T10:46:42.239Z,14.00
2018-10-02T10:49:11.229Z,14.00
2018-10-02T10:51:40.201Z,14.10
2018-10-02T10:54:10.737Z,14.10
2018-10-02T10:56:39.775Z,14.10
2018-10-02T10:59:08.805Z,14.10
2018-10-02T11:01:37.897Z,14.20
2018-10-02T11:04:07.409Z,14.20
2018-10-02T11:06:36.499Z,14.20
2018-10-02T11:09:07.953Z,14.20
2018-10-02T11:11:37.165Z,14.30
2018-10-02T11:14:06.638Z,14.30
2018-10-02T11:16:35.634Z,14.30
2018-10-02T11:19:04.749Z,14.40
2018-10-02T11:21:33.822Z,14.50
2018-10-02T11:24:02.960Z,14.50
2018-10-02T11:26:32.013Z,14.50
2018-10-02T11:29:01.107Z,14.60
2018-10-02T11:31:30.219Z,14.70
2018-10-02T11:33:59.336Z,14.70
2018-10-02T11:36:28.407Z,14.80
2018-10-02T11:38:57.461Z,14.80
2018-10-02T11:41:26.461Z,14.90
2018-10-02T11:43:55.506Z,15.00
2018-10-02T11:46:24.515Z,15.10
2018-10-02T11:48:53.631Z,15.20
2018-10-02T11:51:22.706Z,15.30
2018-10-02T11:53:52.547Z,15.40
2018-10-02T11:56:21.548Z,15.50
2018-10-02T11:58:50.560Z,15.60
2018-10-02T12:01:19.747Z,15.70
2018-10-02T12:04:03.219Z,15.80
2018-10-02T12:06:32.273Z,15.90
2018-10-02T12:09:01.339Z,16.10
2018-10-02T12:11:30.446Z,16.10
2018-10-02T12:13:59.607Z,16.20
2018-10-02T12:16:28.682Z,16.30
2018-10-02T12:18:57.776Z,16.30
2018-10-02T12:21:26.756Z,16.30
2018-10-02T12:23:55.798Z,16.30
2018-10-02T12:26:24.862Z,16.40
2018-10-02T12:28:53.853Z,16.40
2018-10-02T12:31:22.907Z,16.40
2018-10-02T12:33:51.961Z,16.40
2018-10-02T12:36:21.038Z,16.50
2018-10-02T12:38:50.161Z,16.60
2018-10-02T12:41:19.190Z,16.70
2018-10-02T12:43:48.238Z,16.80
2018-10-02T12:46:17.567Z,17.00
2018-10-02T12:48:46.874Z,17.10
2018-10-02T12:51:16.012Z,17.20
2018-10-02T12:53:45.016Z,17.40
2018-10-02T12:56:14.031Z,17.50
2018-10-02T12:58:43.010Z,17.60
2018-10-02T13:01:12.063Z,17.70
2018-10-02T13:03:41.082Z,17.80
2018-10-02T13:06:10.104Z,17.90
2018-10-02T13:08:39.280Z,18.10
2018-10-02T13:11:08.367Z,18.10
2018-10-02T13:13:37.764Z,18.20
2018-10-02T13:16:06.930Z,18.30
2018-10-02T13:18:35.939Z,18.30
2018-10-02T13:21:04.946Z,18.30
2018-10-02T13:23:34.078Z,18.40
2018-10-02T13:26:03.144Z,18.50
2018-10-02T13:28:32.274Z,18.50
2018-10-02T13:31:01.378Z,18.50
2018-10-02T13:33:30.757Z,18.50
2018-10-02T13:35:59.879Z,18.50
2018-10-02T13:38:28.939Z,18.60
2018-10-02T13:40:58.103Z,18.60
2018-10-02T13:43:27.118Z,18.60
2018-10-02T13:45:56.237Z,18.50
2018-10-02T13:48:25.218Z,18.40
2018-10-02T13:50:54.319Z,18.40
2018-10-02T13:53:23.381Z,18.30
2018-10-02T13:55:52.471Z,18.30
2018-10-02T13:58:21.606Z,18.20
2018-10-02T14:00:50.657Z,18.20
2018-10-02T14:03:19.673Z,18.20
2018-10-02T14:05:48.672Z,18.20
2018-10-02T14:08:17.772Z,18.20
2018-10-02T14:10:46.863Z,18.20
2018-10-02T14:13:15.983Z,18.30
2018-10-02T14:15:45.072Z,18.30
2018-10-02T14:18:14.071Z,18.30
2018-10-02T14:20:43.051Z,18.30
2018-10-02T14:23:12.119Z,18.30
2018-10-02T14:25:41.261Z,18.30
2018-10-02T14:28:10.275Z,18.40
2018-10-02T14:30:39.307Z,18.40
2018-10-02T14:33:10.210Z,18.40
2018-10-02T14:35:39.291Z,18.40
2018-10-02T14:38:08.385Z,18.40
2018-10-02T14:40:37.740Z,18.40
2018-10-02T14:43:06.966Z,18.40
2018-10-02T14:45:36.109Z,18.40
2018-10-02T14:48:05.149Z,18.30
2018-10-02T14:50:34.115Z,18.30
2018-10-02T14:53:03.201Z,18.20
2018-10-02T14:55:32.212Z,18.20
2018-10-02T14:58:01.299Z,18.10
2018-10-02T15:00:30.410Z,18.10
2018-10-02T15:02:59.460Z,18.10
2018-10-02T15:05:28.499Z,18.10
2018-10-02T15:07:57.727Z,18.00
2018-10-02T15:10:26.792Z,18.00
2018-10-02T15:12:55.840Z,18.00
2018-10-02T15:15:24.879Z,17.90
2018-10-02T15:17:53.869Z,18.00
2018-10-02T15:20:22.986Z,17.90
2018-10-02T15:22:52.069Z,18.00
2018-10-02T15:25:21.158Z,18.00
2018-10-02T15:27:50.154Z,18.10
2018-10-02T15:30:19.226Z,18.20
2018-10-02T15:32:48.230Z,18.30
2018-10-02T15:35:17.253Z,18.40
2018-10-02T15:37:46.458Z,18.40
2018-10-02T15:40:15.510Z,18.40
2018-10-02T15:42:44.514Z,18.50
2018-10-02T15:45:13.606Z,18.50
2018-10-02T15:47:42.693Z,18.60
2018-10-02T15:50:11.806Z,18.60
2018-10-02T15:52:40.862Z,18.70
2018-10-02T15:55:09.858Z,18.70
2018-10-02T15:57:38.988Z,18.70
2018-10-02T16:00:08.059Z,18.70
2018-10-02T16:02:37.102Z,18.60
2018-10-02T16:05:06.614Z,18.60
2018-10-02T16:07:35.642Z,18.60
2018-10-02T16:10:04.900Z,18.50
2018-10-02T16:12:33.866Z,18.40
2018-10-02T16:15:03.030Z,18.40
2018-10-02T16:17:32.018Z,18.30
2018-10-02T16:20:01.038Z,18.30
2018-10-02T16:22:30.039Z,18.20
2018-10-02T16:24:59.661Z,18.10
2018-10-02T16:27:28.642Z,18.10
2018-10-02T16:29:57.708Z,18.10
2018-10-02T16:32:26.736Z,18.10
2018-10-02T16:34:55.911Z,18.00
2018-10-02T16:37:24.856Z,18.00
2018-10-02T16:39:53.819Z,18.00
2018-10-02T16:42:23.216Z,17.90
2018-10-02T16:44:52.328Z,17.90
2018-10-02T16:47:22.345Z,17.80
2018-10-02T16:49:51.394Z,17.80
2018-10-02T16:52:20.415Z,17.80
2018-10-02T16:54:49.894Z,17.70
2018-10-02T16:57:19.002Z,17.70
2018-10-02T16:59:47.981Z,17.60
2018-10-02T17:02:16.978Z,17.60
2018-10-02T17:04:46.001Z,17.60
2018-10-02T17:07:15.037Z,17.50
2018-10-02T17:09:44.100Z,17.50
2018-10-02T17:12:13.184Z,17.40
2018-10-02T17:14:42.225Z,17.40
2018-10-02T17:17:11.355Z,17.40
2018-10-02T17:19:40.358Z,17.30
2018-10-02T17:22:09.351Z,17.30
2018-10-02T17:24:38.473Z,17.30
2018-10-02T17:27:07.558Z,17.20
2018-10-02T17:29:36.651Z,17.20
2018-10-02T17:32:05.785Z,17.20
2018-10-02T17:34:34.860Z,17.10
2018-10-02T17:37:03.829Z,17.10
2018-10-02T17:39:32.961Z,17.10
2018-10-02T17:42:01.953Z,17.10
2018-10-02T17:44:31.010Z,17.00
2018-10-02T17:47:00.107Z,17.00
2018-10-02T17:49:29.209Z,17.00
2018-10-02T17:51:58.183Z,16.90
2018-10-02T17:54:27.158Z,16.90
2018-10-02T17:56:56.192Z,16.80
2018-10-02T17:59:25.341Z,16.80
2018-10-02T18:01:54.467Z,16.70
2018-10-02T18:04:23.560Z,16.70
2018-10-02T18:06:52.638Z,16.70
2018-10-02T18:09:21.672Z,16.60
2018-10-02T18:11:50.630Z,16.60
2018-10-02T18:14:19.618Z,16.60
2018-10-02T18:16:48.662Z,16.50
2018-10-02T18:19:17.766Z,16.50
2018-10-02T18:21:46.874Z,16.50
2018-10-02T18:24:17.926Z,16.40
2018-10-02T18:26:47.858Z,16.40
2018-10-02T18:29:16.873Z,16.40
2018-10-02T18:31:45.974Z,16.30
2018-10-02T18:34:15.058Z,16.30
2018-10-02T18:36:44.290Z,16.40
2018-10-02T18:39:13.336Z,16.30
2018-10-02T18:41:42.338Z,16.30
2018-10-02T18:44:11.320Z,16.40
2018-10-02T18:46:40.934Z,16.40
2018-10-02T18:49:09.961Z,16.40
2018-10-02T18:51:39.022Z,16.40
2018-10-02T18:54:08.010Z,16.40
2018-10-02T18:56:37.074Z,16.40
2018-10-02T18:59:06.134Z,16.30
2018-10-02T19:01:35.206Z,16.30
2018-10-02T19:04:04.374Z,16.30
2018-10-02T19:06:33.382Z,16.30
2018-10-02T19:09:07.902Z,16.20
2018-10-02T19:11:42.366Z,16.20
2018-10-02T19:14:11.474Z,16.20
2018-10-02T19:16:40.466Z,16.10
2018-10-02T19:19:13.838Z,16.10
2018-10-02T19:21:42.842Z,16.10
2018-10-02T19:24:11.900Z,16.10
2018-10-02T19:26:50.117Z,16.10
2018-10-02T19:29:19.156Z,16.00
2018-10-02T19:31:53.742Z,16.00
2018-10-02T19:34:22.754Z,16.00
2018-10-02T19:36:51.728Z,16.00
2018-10-02T19:39:22.796Z,15.90
2018-10-02T19:41:52.058Z,15.90
2018-10-02T19:44:21.086Z,15.90
2018-10-02T19:46:54.532Z,15.90
2018-10-02T19:49:25.086Z,15.90
2018-10-02T19:52:00.866Z,15.80
2018-10-02T19:54:30.150Z,15.80
2018-10-02T19:56:59.235Z,15.80
2018-10-02T19:59:42.638Z,15.90
2018-10-02T20:02:11.649Z,15.80
2018-10-02T20:04:40.746Z,15.80
2018-10-02T20:07:09.766Z,15.80
2018-10-02T20:09:38.909Z,15.80
2018-10-02T20:12:07.949Z,15.80
2018-10-02T20:14:37.082Z,15.80
2018-10-02T20:17:06.461Z,15.80
2018-10-02T20:19:35.565Z,15.80
2018-10-02T20:22:07.721Z,15.80
2018-10-02T20:24:37.801Z,15.80
2018-10-02T20:27:06.872Z,15.70
2018-10-02T20:29:35.833Z,15.70
2018-10-02T20:32:04.947Z,15.70
2018-10-02T20:34:34.019Z,15.70
2018-10-02T20:37:03.111Z,15.70
2018-10-02T20:39:32.229Z,15.70
2018-10-02T20:42:01.205Z,15.70
2018-10-02T20:44:30.189Z,15.60
2018-10-02T20:46:59.309Z,15.60
2018-10-02T20:49:28.400Z,15.60
2018-10-02T20:51:57.459Z,15.50
2018-10-02T20:54:26.597Z,15.50
2018-10-02T20:56:55.776Z,15.50
2018-10-02T20:59:25.229Z,15.50
2018-10-02T21:01:54.259Z,15.50
2018-10-02T21:04:23.328Z,15.50
2018-10-02T21:06:52.320Z,15.50
2018-10-02T21:09:21.323Z,15.60
2018-10-02T21:11:50.323Z,15.60
2018-10-02T21:14:19.383Z,15.60
2018-10-02T21:16:48.461Z,15.60
2018-10-02T21:19:17.506Z,15.60
2018-10-02T21:21:46.550Z,15.60
2018-10-02T21:24:15.589Z,15.60
2018-10-02T21:26:44.626Z,15.70
2018-10-02T21:29:13.683Z,15.70
2018-10-02T21:31:42.945Z,15.70
2018-10-02T21:34:11.874Z,15.70
2018-10-02T21:36:40.855Z,15.70
2018-10-02T21:39:10.499Z,15.70
2018-10-02T21:41:40.629Z,15.70
2018-10-02T21:44:09.631Z,15.70
2018-10-02T21:46:38.689Z,15.70
2018-10-02T21:49:07.993Z,15.70
2018-10-02T21:51:44.155Z,15.70
2018-10-02T21:54:13.245Z,15.60
2018-10-02T21:56:42.331Z,15.60
2018-10-02T21:59:11.341Z,15.60
2018-10-02T22:01:41.081Z,15.60
2018-10-02T22:04:10.145Z,15.60
2018-10-02T22:06:39.237Z,15.60
2018-10-02T22:09:09.577Z,15.60
2018-10-02T22:11:38.773Z,15.50
2018-10-02T22:14:07.762Z,15.50
2018-10-02T22:16:36.917Z,15.60
2018-10-02T22:19:05.992Z,15.60
2018-10-02T22:21:35.011Z,15.60
2018-10-02T22:24:04.103Z,15.60
2018-10-02T22:26:33.035Z,15.60
2018-10-02T22:29:05.195Z,15.60
2018-10-02T22:31:34.296Z,15.60
2018-10-02T22:34:03.444Z,15.60
2018-10-02T22:36:32.481Z,15.60
2018-10-02T22:39:01.491Z,15.60
2018-10-02T22:41:30.498Z,15.50
2018-10-02T22:43:59.554Z,15.50
2018-10-02T22:46:28.558Z,15.50
2018-10-02T22:48:57.700Z,15.50
2018-10-02T22:51:27.347Z,15.50
2018-10-02T22:53:56.394Z,15.50
2018-10-02T22:56:25.478Z,15.50
2018-10-02T22:58:54.734Z,15.40
2018-10-02T23:01:23.846Z,15.40
2018-10-02T23:03:53.147Z,15.40
2018-10-02T23:06:22.214Z,15.40
2018-10-02T23:08:51.210Z,15.40
2018-10-02T23:11:20.252Z,15.40
2018-10-02T23:13:49.290Z,15.40
2018-10-02T23:16:18.294Z,15.40
2018-10-02T23:18:47.302Z,15.30
2018-10-02T23:21:16.418Z,15.30
2018-10-02T23:23:45.485Z,15.30
2018-10-02T23:26:14.485Z,15.30
2018-10-02T23:28:43.510Z,15.30
2018-10-02T23:31:12.585Z,15.30
2018-10-02T23:33:41.661Z,15.20
2018-10-02T23:36:10.697Z,15.20
2018-10-02T23:38:39.762Z,15.20
2018-10-02T23:41:09.629Z,15.20
2018-10-02T23:43:38.703Z,15.20
2018-10-02T23:46:07.777Z,15.20
2018-10-02T23:48:36.829Z,15.10
2018-10-02T23:51:06.407Z,15.10
2018-10-02T23:53:35.815Z,15.10
2018-10-02T23:56:05.103Z,15.10
2018-10-02T23:58:34.073Z,15.00
